Time;durP1;ratioP1;P1;durP2;ratioP2;P2;SDS_P1;SDS_P2;PMS_P1;PMS_P2;Temp;Humidity;BMP_temperature;BMP_pressure;BME280_temperature;BME280_humidity;BME280_pressure;Samples;Min_cycle;Max_cycle;Signal;HPM_P1;HPM_P2
2022/04/12 00:01:57;;;;;;;11.10;5.50;;;;;;;3.44;63.71;96957.31;107852;1268;34734;-74
2022/04/12 00:04:27;;;;;;;10.70;5.90;;;;;;;3.44;63.76;96956.27;107745;1268;51312;-75
2022/04/12 00:06:58;;;;;;;9.60;5.80;;;;;;;3.42;63.78;96955.40;107755;1268;45505;-75
2022/04/12 00:09:29;;;;;;;12.20;6.10;;;;;;;3.41;63.80;96959.27;107732;1268;47225;-75
2022/04/12 00:12:00;;;;;;;9.80;4.50;;;;;;;3.35;63.95;96953.36;107609;1268;49017;-74
2022/04/12 00:14:31;;;;;;;15.60;5.40;;;;;;;3.30;64.04;96954.25;107779;1268;37006;-74
2022/04/12 00:19:46;;;;;;;9.50;3.70;;;;;;;3.23;64.40;96956.80;107722;1268;43616;-74
2022/04/12 00:22:17;;;;;;;11.10;5.70;;;;;;;3.23;64.40;96956.27;107786;1268;49300;-74
2022/04/12 00:24:48;;;;;;;8.30;4.50;;;;;;;3.26;64.34;96951.78;107764;1268;33669;-74
2022/04/12 00:27:19;;;;;;;13.50;6.40;;;;;;;3.27;64.28;96946.48;107704;1268;48663;-74
2022/04/12 00:29:49;;;;;;;10.00;5.80;;;;;;;3.29;64.26;96948.72;106243;1268;2014306;-74
2022/04/12 00:32:20;;;;;;;10.00;6.10;;;;;;;3.28;64.27;96943.52;107644;1268;52797;-74
2022/04/12 00:34:51;;;;;;;10.80;6.40;;;;;;;3.26;64.52;96942.79;107754;1268;37086;-74
2022/04/12 00:37:22;;;;;;;12.70;6.60;;;;;;;3.22;64.55;96940.30;107829;1268;32401;-74
2022/04/12 00:39:52;;;;;;;8.20;4.70;;;;;;;3.19;64.52;96940.13;107821;1268;39649;-74
2022/04/12 00:42:24;;;;;;;9.40;5.40;;;;;;;3.20;64.46;96936.01;107685;1268;43465;-74
2022/04/12 00:44:56;;;;;;;14.30;6.80;;;;;;;3.22;64.57;96935.05;107753;1268;46355;-74
2022/04/12 00:47:27;;;;;;;10.30;5.20;;;;;;;3.23;64.65;96934.19;107769;1267;52146;-74
2022/04/12 00:49:58;;;;;;;10.40;5.90;;;;;;;3.24;64.55;96933.83;107767;1268;50493;-74
2022/04/12 00:52:30;;;;;;;7.00;4.30;;;;;;;3.28;64.36;96928.58;107808;1268;51334;-75
2022/04/12 00:55:02;;;;;;;7.80;5.00;;;;;;;3.31;64.32;96929.00;107741;1268;51125;-74
2022/04/12 00:57:34;;;;;;;8.70;5.40;;;;;;;3.32;64.40;96925.84;107735;1268;53436;-74
2022/04/12 01:00:08;;;;;;;9.20;5.30;;;;;;;3.30;64.40;96923.05;107812;1268;40482;-74
2022/04/12 01:02:40;;;;;;;10.00;5.20;;;;;;;3.29;64.48;96923.99;107754;1268;46510;-74
2022/04/12 01:05:11;;;;;;;8.40;4.90;;;;;;;3.28;64.28;96919.26;107648;1268;114965;-74
2022/04/12 01:07:43;;;;;;;8.80;4.40;;;;;;;3.30;64.21;96922.73;107706;1268;47353;-74
2022/04/12 01:10:15;;;;;;;8.10;4.50;;;;;;;3.29;64.15;96921.78;107699;1268;143784;-74
2022/04/12 01:12:48;;;;;;;10.20;5.60;;;;;;;3.27;64.32;96922.69;107968;1268;31020;-74
2022/04/12 01:15:20;;;;;;;6.30;3.90;;;;;;;3.23;64.46;96921.98;107755;1268;46190;-74
2022/04/12 01:17:53;;;;;;;8.50;4.50;;;;;;;3.24;64.36;96925.27;107790;1268;43624;-74
2022/04/12 01:20:29;;;;;;;8.10;4.40;;;;;;;3.28;64.38;96929.89;107767;1268;46456;-74
2022/04/12 01:23:05;;;;;;;8.60;4.80;;;;;;;3.28;64.75;96930.30;107744;1268;48426;-74
2022/04/12 01:25:37;;;;;;;7.70;4.30;;;;;;;3.18;65.05;96926.05;107766;1268;44712;-74
2022/04/12 01:28:09;;;;;;;10.10;5.80;;;;;;;3.14;65.11;96928.20;107906;1268;36094;-74
2022/04/12 01:30:40;;;;;;;8.90;5.40;;;;;;;3.12;65.48;96924.98;107907;1268;50358;-74
2022/04/12 01:33:12;;;;;;;9.50;5.40;;;;;;;3.08;65.47;96928.10;107936;1268;58509;-74
2022/04/12 01:35:43;;;;;;;12.00;5.00;;;;;;;3.07;65.53;96928.48;107860;1268;52588;-74
2022/04/12 01:38:13;;;;;;;9.40;4.30;;;;;;;3.04;65.89;96926.67;107906;1268;43120;-74
2022/04/12 01:40:44;;;;;;;7.30;4.40;;;;;;;3.03;65.69;96925.24;107737;1268;54481;-74
2022/04/12 01:43:16;;;;;;;7.80;4.20;;;;;;;3.05;65.60;96931.41;107723;1268;49653;-74
2022/04/12 01:45:48;;;;;;;6.20;4.30;;;;;;;3.09;65.52;96928.39;107814;1268;62977;-74
2022/04/12 01:48:19;;;;;;;9.10;5.00;;;;;;;3.10;65.63;96929.42;107721;1268;71992;-74
2022/04/12 01:50:50;;;;;;;7.90;4.40;;;;;;;3.08;65.91;96931.45;107729;1268;52868;-74
2022/04/12 01:53:20;;;;;;;9.80;4.90;;;;;;;3.06;65.81;96934.42;107742;1268;36535;-74
2022/04/12 01:55:51;;;;;;;8.50;4.50;;;;;;;3.08;65.60;96934.23;107753;1268;35529;-74
2022/04/12 01:58:22;;;;;;;7.20;4.30;;;;;;;3.11;65.65;96935.63;107823;1268;35329;-74
2022/04/12 02:00:53;;;;;;;9.10;5.10;;;;;;;3.10;65.70;96935.71;107765;1268;42284;-74
2022/04/12 02:03:23;;;;;;;8.20;5.00;;;;;;;3.08;65.69;96937.90;107845;1268;42404;-74
2022/04/12 02:05:55;;;;;;;7.50;5.10;;;;;;;3.08;65.54;96943.91;107813;1268;45800;-74
2022/04/12 02:08:26;;;;;;;7.10;4.70;;;;;;;3.07;65.82;96947.98;107799;1268;41424;-74
2022/04/12 02:10:56;;;;;;;8.50;5.10;;;;;;;3.01;65.94;96947.55;107771;1268;50709;-74
2022/04/12 02:13:28;;;;;;;7.10;4.30;;;;;;;2.95;66.12;96950.23;107866;1268;44240;-74
2022/04/12 02:15:59;;;;;;;8.10;4.60;;;;;;;2.88;66.10;96952.79;107786;1268;75774;-75
2022/04/12 02:18:30;;;;;;;7.90;4.10;;;;;;;2.86;65.95;96952.86;107788;1268;38762;-75
2022/04/12 02:21:01;;;;;;;7.50;4.10;;;;;;;2.83;66.11;96960.08;107742;1268;40871;-74
2022/04/12 02:23:31;;;;;;;8.60;4.20;;;;;;;2.72;66.68;96961.77;107795;1268;56091;-74
2022/04/12 02:26:02;;;;;;;7.90;4.60;;;;;;;2.61;67.03;96957.71;107827;1268;39113;-74
2022/04/12 02:28:33;;;;;;;8.00;4.70;;;;;;;2.54;67.14;96960.16;107694;1268;62459;-74
2022/04/12 02:31:04;;;;;;;7.30;4.80;;;;;;;2.51;67.19;96962.35;107799;1268;31766;-74
2022/04/12 02:33:35;;;;;;;8.00;4.60;;;;;;;2.47;67.24;96958.91;107741;1267;55020;-74
2022/04/12 02:36:06;;;;;;;7.90;4.40;;;;;;;2.44;67.09;96960.11;107766;1268;31225;-74
2022/04/12 02:38:37;;;;;;;5.20;3.50;;;;;;;2.41;67.26;96961.23;107717;1268;43289;-74
2022/04/12 02:41:08;;;;;;;9.70;4.60;;;;;;;2.36;67.41;96963.64;107780;1268;42990;-74
2022/04/12 02:43:39;;;;;;;10.80;4.40;;;;;;;2.37;67.39;96966.04;107781;1267;52249;-74
2022/04/12 02:46:12;;;;;;;8.30;3.80;;;;;;;2.41;67.27;96970.09;107898;1267;56074;-74
2022/04/12 02:48:43;;;;;;;8.50;4.20;;;;;;;2.53;67.21;96966.70;107690;1268;39793;-74
2022/04/12 02:51:13;;;;;;;9.60;5.10;;;;;;;2.54;67.17;96968.24;107662;1267;39073;-74
2022/04/12 02:53:44;;;;;;;7.80;3.50;;;;;;;2.49;67.29;96971.92;107735;1268;31871;-74
2022/04/12 02:56:15;;;;;;;10.00;4.80;;;;;;;2.51;67.21;96970.81;107827;1268;41899;-74
2022/04/12 02:58:46;;;;;;;9.50;4.70;;;;;;;2.55;67.05;96972.27;107761;1268;43300;-74
2022/04/12 03:01:16;;;;;;;8.20;5.00;;;;;;;2.63;67.03;96974.22;107785;1267;39531;-74
2022/04/12 03:03:47;;;;;;;9.40;4.90;;;;;;;2.70;66.92;96974.28;107751;1267;52494;-74
2022/04/12 03:06:18;;;;;;;10.80;5.80;;;;;;;2.76;66.76;96973.52;107816;1268;33677;-74
2022/04/12 03:08:49;;;;;;;9.00;4.80;;;;;;;2.79;66.63;96975.97;107738;1268;48779;-74
2022/04/12 03:11:21;;;;;;;9.70;5.40;;;;;;;2.81;66.44;96980.55;107741;1268;44524;-74
2022/04/12 03:13:52;;;;;;;9.10;4.20;;;;;;;2.81;66.35;96977.76;107765;1267;42320;-74
2022/04/12 03:16:23;;;;;;;7.80;4.00;;;;;;;2.82;66.55;96983.98;107805;1267;50854;-74
2022/04/12 03:18:54;;;;;;;8.50;5.20;;;;;;;2.79;66.67;96981.77;107808;1267;51101;-74
2022/04/12 03:21:25;;;;;;;12.30;6.80;;;;;;;2.77;66.64;96989.73;107849;1267;48366;-74
2022/04/12 03:23:55;;;;;;;12.10;7.20;;;;;;;2.75;66.75;96991.30;107690;1268;45489;-74
2022/04/12 03:26:26;;;;;;;9.80;5.50;;;;;;;2.73;66.77;96991.89;107860;1267;50614;-74
2022/04/12 03:28:57;;;;;;;7.10;3.70;;;;;;;2.73;66.86;96992.69;107832;1268;39872;-74
2022/04/12 03:31:28;;;;;;;10.00;5.60;;;;;;;2.72;66.95;96996.89;107927;1268;39942;-74
2022/04/12 03:33:59;;;;;;;8.30;5.20;;;;;;;2.66;67.16;96996.23;107803;1268;54300;-75
2022/04/12 03:36:30;;;;;;;8.00;5.30;;;;;;;2.61;67.25;96994.95;107715;1268;45756;-75
2022/04/12 03:39:01;;;;;;;7.00;3.60;;;;;;;2.59;67.24;96991.63;107752;1267;46633;-74
2022/04/12 03:41:32;;;;;;;10.50;5.50;;;;;;;2.56;67.45;96991.67;107801;1268;43595;-74
2022/04/12 03:44:03;;;;;;;11.20;5.40;;;;;;;2.53;67.59;96987.70;107808;1267;33647;-74
2022/04/12 03:46:34;;;;;;;9.30;4.80;;;;;;;2.52;67.55;96987.51;107745;1268;36326;-74
2022/04/12 03:49:05;;;;;;;8.70;4.10;;;;;;;2.51;67.66;96988.61;107709;1268;43958;-74
2022/04/12 03:51:36;;;;;;;11.50;5.50;;;;;;;2.46;67.63;96987.43;107578;1270;40642;-74
2022/04/12 03:54:07;;;;;;;11.00;6.50;;;;;;;2.41;67.79;96986.36;107782;1268;43815;-74
2022/04/12 03:56:38;;;;;;;12.70;5.60;;;;;;;2.35;67.69;96986.12;107832;1268;47567;-74
2022/04/12 03:59:09;;;;;;;9.90;5.30;;;;;;;2.32;67.83;96985.51;107802;1268;50050;-74
2022/04/12 04:01:40;;;;;;;11.00;6.00;;;;;;;2.30;67.54;96983.48;107796;1267;56333;-74
2022/04/12 04:04:12;;;;;;;11.00;5.30;;;;;;;2.31;67.46;96988.26;107792;1267;50001;-74
2022/04/12 04:06:43;;;;;;;7.60;5.70;;;;;;;2.31;67.39;96986.89;107602;1270;43553;-74
2022/04/12 04:09:13;;;;;;;8.50;4.70;;;;;;;2.33;67.18;96991.73;107695;1268;54401;-74
2022/04/12 04:11:45;;;;;;;8.90;5.00;;;;;;;2.35;67.17;96994.77;107769;1268;35956;-74
2022/04/12 04:14:17;;;;;;;9.90;5.00;;;;;;;2.34;67.17;96997.95;107766;1268;31674;-74
2022/04/12 04:16:48;;;;;;;8.00;4.50;;;;;;;2.30;67.08;96999.42;107749;1267;37599;-74
2022/04/12 04:19:19;;;;;;;10.70;5.10;;;;;;;2.31;67.12;97003.48;107688;1270;47235;-74
2022/04/12 04:21:50;;;;;;;9.70;5.90;;;;;;;2.31;67.06;97007.94;107680;1268;46392;-74
2022/04/12 04:24:21;;;;;;;9.60;5.00;;;;;;;2.34;67.17;97008.07;107741;1268;38922;-74
2022/04/12 04:26:55;;;;;;;10.30;4.70;;;;;;;2.35;67.08;97010.67;107714;1268;47569;-74
2022/04/12 04:29:27;;;;;;;6.70;3.70;;;;;;;2.35;66.96;97010.25;107816;1268;32200;-74
2022/04/12 04:31:58;;;;;;;8.60;5.10;;;;;;;2.37;67.04;97011.92;107729;1268;42352;-74
2022/04/12 04:34:29;;;;;;;8.30;4.70;;;;;;;2.37;67.02;97007.78;107765;1267;46587;-75
2022/04/12 04:36:59;;;;;;;8.40;4.60;;;;;;;2.39;67.08;97008.05;107783;1268;39882;-74
2022/04/12 04:39:30;;;;;;;8.80;5.10;;;;;;;2.42;67.05;97012.51;107798;1268;51349;-75
2022/04/12 04:42:05;;;;;;;8.30;4.30;;;;;;;2.44;66.94;97015.91;107751;1268;48299;-75
2022/04/12 04:44:36;;;;;;;8.10;4.10;;;;;;;2.48;67.04;97026.00;107664;1269;55357;-74
2022/04/12 04:47:08;;;;;;;8.80;5.20;;;;;;;2.50;66.93;97024.97;107773;1268;40841;-74
2022/04/12 04:49:39;;;;;;;7.40;4.70;;;;;;;2.54;67.13;97023.58;107773;1268;42584;-74
2022/04/12 04:52:12;;;;;;;8.70;5.40;;;;;;;2.57;67.00;97025.56;107810;1268;42784;-74
2022/04/12 04:54:43;;;;;;;7.70;5.00;;;;;;;2.59;66.90;97026.63;107803;1268;36668;-74
2022/04/12 04:57:14;;;;;;;6.50;4.20;;;;;;;2.59;66.82;97032.79;107773;1268;54554;-74
2022/04/12 04:59:45;;;;;;;8.10;4.10;;;;;;;2.62;66.49;97031.94;107602;1270;36026;-74
2022/04/12 05:02:16;;;;;;;6.40;4.10;;;;;;;2.70;66.15;97035.26;107809;1268;51110;-74
2022/04/12 05:04:49;;;;;;;8.80;4.70;;;;;;;2.77;65.99;97034.09;107735;1268;53051;-74
2022/04/12 05:07:28;;;;;;;6.70;4.20;;;;;;;2.79;65.91;97038.33;107910;1265;49259;-74
2022/04/12 05:09:59;;;;;;;8.30;4.00;;;;;;;2.80;65.67;97039.52;107905;1267;45688;-75
2022/04/12 05:12:31;;;;;;;6.90;3.90;;;;;;;2.79;65.65;97036.19;107757;1267;34249;-75
2022/04/12 05:15:02;;;;;;;7.00;4.30;;;;;;;2.80;65.69;97034.89;107724;1268;51104;-74
2022/04/12 05:17:34;;;;;;;7.30;4.40;;;;;;;2.84;65.43;97041.48;107779;1267;42059;-74
2022/04/12 05:20:09;;;;;;;7.20;4.10;;;;;;;2.88;65.33;97044.16;107717;1268;65735;-74
2022/04/12 05:22:40;;;;;;;7.30;4.80;;;;;;;2.93;65.29;97045.14;107863;1268;47724;-74
2022/04/12 05:25:11;;;;;;;13.30;6.80;;;;;;;2.99;65.34;97051.54;107817;1267;46280;-74
2022/04/12 05:27:43;;;;;;;9.40;5.50;;;;;;;3.39;65.38;97048.08;107772;1268;36733;-75
2022/04/12 05:30:16;;;;;;;8.30;5.60;;;;;;;3.97;64.68;97048.83;107712;1267;57052;-75
2022/04/12 05:32:47;;;;;;;11.50;6.60;;;;;;;5.12;63.71;97050.69;107770;1267;44508;-75
2022/04/12 05:35:18;;;;;;;11.50;6.80;;;;;;;6.45;62.75;97050.48;107764;1268;39896;-75
2022/04/12 05:37:52;;;;;;;8.10;5.30;;;;;;;7.86;60.63;97047.59;107806;1267;48065;-75
2022/04/12 05:40:24;;;;;;;10.60;6.80;;;;;;;8.83;57.74;97044.50;107807;1268;47005;-75
2022/04/12 05:42:55;;;;;;;9.60;6.70;;;;;;;9.70;54.94;97048.77;107788;1268;34955;-75
2022/04/12 05:45:26;;;;;;;9.90;5.90;;;;;;;10.19;53.65;97053.58;107798;1268;52473;-75
2022/04/12 05:47:57;;;;;;;8.60;6.10;;;;;;;10.65;51.49;97054.95;107775;1268;57232;-75
2022/04/12 05:50:29;;;;;;;10.10;6.00;;;;;;;11.10;49.98;97049.34;107820;1268;55769;-75
2022/04/12 05:53:00;;;;;;;9.10;6.00;;;;;;;11.32;48.50;97049.96;107759;1268;33345;-76
2022/04/12 05:55:31;;;;;;;7.50;5.10;;;;;;;11.79;48.70;97051.96;107766;1268;51529;-76
2022/04/12 05:58:04;;;;;;;9.60;5.10;;;;;;;12.64;46.95;97049.22;107787;1268;37755;-75
2022/04/12 06:00:36;;;;;;;9.10;6.20;;;;;;;12.96;45.97;97054.88;107738;1267;47931;-75
2022/04/12 06:03:07;;;;;;;7.80;5.10;;;;;;;13.43;46.06;97052.09;107805;1268;31688;-76
2022/04/12 06:05:39;;;;;;;8.40;5.70;;;;;;;14.21;45.03;97054.52;107730;1268;49871;-75
2022/04/12 06:08:10;;;;;;;9.90;5.50;;;;;;;14.79;43.00;97055.48;107720;1268;54974;-75
2022/04/12 06:10:41;;;;;;;8.60;5.50;;;;;;;14.89;42.74;97057.01;107740;1268;53445;-75
2022/04/12 06:13:14;;;;;;;8.20;5.50;;;;;;;15.09;40.73;97055.15;107738;1268;41423;-75
2022/04/12 06:15:45;;;;;;;9.00;5.00;;;;;;;15.45;41.00;97057.98;107783;1268;53697;-75
2022/04/12 06:18:16;;;;;;;6.80;4.50;;;;;;;15.82;40.11;97054.06;107814;1267;36903;-75
2022/04/12 06:20:47;;;;;;;7.40;5.00;;;;;;;16.03;39.19;97053.02;107694;1268;44419;-75
2022/04/12 06:23:18;;;;;;;6.80;4.60;;;;;;;16.17;38.82;97055.16;107699;1268;107187;-75
2022/04/12 06:25:49;;;;;;;7.80;5.00;;;;;;;16.56;37.79;97055.20;107820;1267;44115;-75
2022/04/12 06:28:20;;;;;;;7.00;4.90;;;;;;;16.30;36.31;97060.07;107784;1267;43051;-75
2022/04/12 06:30:52;;;;;;;7.30;5.30;;;;;;;16.37;36.93;97058.45;106846;1267;1272627;-75
2022/04/12 06:33:23;;;;;;;7.60;5.50;;;;;;;16.72;36.62;97064.08;107658;1268;44842;-73
2022/04/12 06:35:57;;;;;;;9.40;5.50;;;;;;;17.34;37.26;97062.05;107906;1267;40720;-77
2022/04/12 06:38:28;;;;;;;7.10;5.40;;;;;;;18.23;36.90;97064.36;107707;1269;42484;-76
2022/04/12 06:40:59;;;;;;;8.10;5.50;;;;;;;18.85;35.42;97064.00;107769;1268;39277;-76
2022/04/12 06:43:30;;;;;;;8.70;5.90;;;;;;;18.85;34.12;97066.34;107784;1267;44838;-76
2022/04/12 06:46:00;;;;;;;8.30;5.80;;;;;;;18.60;34.39;97069.05;107776;1267;45508;-76
2022/04/12 06:48:31;;;;;;;6.80;5.20;;;;;;;19.06;34.56;97064.98;107780;1267;37340;-76
2022/04/12 06:51:03;;;;;;;5.50;3.90;;;;;;;19.92;33.93;97062.86;107763;1268;41848;-76
2022/04/12 06:53:34;;;;;;;6.30;4.80;;;;;;;20.50;33.34;97058.31;107733;1268;41774;-76
2022/04/12 06:56:06;;;;;;;6.50;4.40;;;;;;;21.34;32.44;97053.16;107806;1268;51992;-76
2022/04/12 06:58:36;;;;;;;5.70;4.50;;;;;;;21.78;31.98;97051.52;107717;1268;51292;-76
2022/04/12 07:01:07;;;;;;;4.30;3.10;;;;;;;22.02;29.85;97055.89;107798;1267;35554;-76
2022/04/12 07:03:38;;;;;;;5.00;2.70;;;;;;;20.61;27.23;97064.61;107808;1268;50984;-76
2022/04/12 07:06:09;;;;;;;5.80;3.40;;;;;;;19.53;28.83;97065.52;107721;1267;108019;-75
2022/04/12 07:08:40;;;;;;;4.60;3.10;;;;;;;19.66;28.39;97064.97;107864;1268;47705;-75
2022/04/12 07:11:11;;;;;;;5.40;3.60;;;;;;;19.13;27.48;97066.96;107776;1267;36933;-76
2022/04/12 07:13:42;;;;;;;5.50;3.30;;;;;;;18.05;27.99;97069.76;107763;1268;34114;-75
2022/04/12 07:16:13;;;;;;;3.50;2.50;;;;;;;17.38;28.22;97069.81;107763;1268;54358;-76
2022/04/12 07:18:44;;;;;;;4.20;3.00;;;;;;;17.43;28.75;97072.73;107870;1268;32720;-76
2022/04/12 07:21:21;;;;;;;4.80;3.00;;;;;;;17.89;28.76;97072.11;107782;1268;31044;-76
2022/04/12 07:23:52;;;;;;;4.80;2.50;;;;;;;17.80;28.26;97075.88;107810;1268;36430;-76
2022/04/12 07:26:22;;;;;;;4.40;2.10;;;;;;;17.58;27.82;97072.30;107842;1267;51408;-76
2022/04/12 07:28:53;;;;;;;4.70;2.60;;;;;;;16.22;27.60;97079.38;107764;1267;43596;-75
2022/04/12 07:31:24;;;;;;;4.60;2.80;;;;;;;15.47;30.82;97087.55;107802;1268;40524;-76
2022/04/12 07:33:55;;;;;;;7.10;3.50;;;;;;;17.95;30.51;97083.49;107825;1267;38725;-76
2022/04/12 07:36:26;;;;;;;5.20;2.50;;;;;;;19.59;28.61;97080.29;107828;1267;52629;-76
2022/04/12 07:38:57;;;;;;;4.40;3.00;;;;;;;18.99;26.78;97080.42;107888;1267;47662;-75
2022/04/12 07:41:28;;;;;;;5.90;2.80;;;;;;;16.29;27.99;97083.01;107842;1267;42455;-75
2022/04/12 07:43:59;;;;;;;5.10;2.80;;;;;;;15.53;30.48;97085.42;107954;1267;33060;-75
2022/04/12 07:46:29;;;;;;;4.00;3.10;;;;;;;17.57;30.41;97083.11;107965;1268;30319;-76
2022/04/12 07:49:00;;;;;;;5.60;3.30;;;;;;;18.34;30.09;97076.86;107864;1267;53964;-76
2022/04/12 07:51:31;;;;;;;6.70;3.20;;;;;;;18.33;29.49;97077.38;107736;1268;39989;-75
2022/04/12 07:54:03;;;;;;;5.70;3.00;;;;;;;17.95;28.65;97079.84;107851;1268;42029;-75
2022/04/12 07:56:35;;;;;;;4.70;2.90;;;;;;;15.87;28.88;97083.75;107824;1267;41802;-75
2022/04/12 07:59:06;;;;;;;4.20;2.40;;;;;;;14.48;29.50;97087.35;107776;1268;34340;-75
2022/04/12 08:01:37;;;;;;;7.70;5.20;;;;;;;13.56;30.11;97090.19;107801;1267;29135;-75
2022/04/12 08:04:09;;;;;;;8.70;6.00;;;;;;;13.18;31.07;97089.70;107687;1268;67230;-75
2022/04/12 08:06:41;;;;;;;9.50;6.20;;;;;;;13.75;32.72;97096.55;107748;1267;44800;-75
2022/04/12 08:09:12;;;;;;;5.00;3.30;;;;;;;15.52;31.73;97092.89;107755;1267;54798;-75
2022/04/12 08:11:43;;;;;;;5.40;3.20;;;;;;;14.87;30.47;97092.16;107795;1268;54348;-74
2022/04/12 08:14:16;;;;;;;5.00;3.20;;;;;;;14.05;31.45;97093.05;107801;1267;33987;-75
2022/04/12 08:16:47;;;;;;;4.80;3.10;;;;;;;13.67;31.95;97095.75;107788;1267;63757;-75
2022/04/12 08:19:19;;;;;;;7.50;3.40;;;;;;;13.98;31.79;97095.16;107782;1268;45107;-74
2022/04/12 08:21:50;;;;;;;11.20;7.50;;;;;;;15.66;31.61;97086.99;107728;1268;97252;-74
2022/04/12 08:24:21;;;;;;;6.70;4.60;;;;;;;16.40;31.07;97092.36;107789;1268;90107;-75
2022/04/12 08:26:52;;;;;;;8.50;6.80;;;;;;;15.97;30.54;97099.45;107702;1267;52516;-74
2022/04/12 08:29:23;;;;;;;7.00;3.30;;;;;;;14.51;29.56;97110.02;107768;1268;51130;-74
2022/04/12 08:31:54;;;;;;;16.00;12.80;;;;;;;13.93;31.28;97111.55;107758;1267;78401;-75
2022/04/12 08:34:25;;;;;;;24.90;20.10;;;;;;;16.41;31.53;97108.35;107858;1267;110383;-74
2022/04/12 08:36:55;;;;;;;5.00;4.30;;;;;;;19.04;30.64;97102.33;107866;1268;87095;-75
2022/04/12 08:39:26;;;;;;;7.20;4.70;;;;;;;20.52;28.86;97101.19;107901;1268;54223;-75
2022/04/12 08:41:58;;;;;;;8.40;6.70;;;;;;;19.39;28.05;97103.43;107862;1268;49006;-75
2022/04/12 08:44:30;;;;;;;5.90;3.10;;;;;;;17.35;27.09;97110.81;107705;1268;61663;-75
2022/04/12 08:47:03;;;;;;;10.60;7.80;;;;;;;15.82;28.92;97113.37;107741;1268;48645;-75
2022/04/12 08:49:35;;;;;;;7.30;4.80;;;;;;;15.19;30.30;97113.83;107793;1268;44311;-74
2022/04/12 08:52:11;;;;;;;4.90;3.00;;;;;;;15.60;31.07;97108.97;107771;1268;51006;-74
2022/04/12 08:54:43;;;;;;;6.00;2.60;;;;;;;18.30;30.98;97096.31;107740;1268;41535;-74
2022/04/12 08:57:14;;;;;;;4.00;2.80;;;;;;;20.89;29.52;97091.19;107734;1267;62520;-74
2022/04/12 08:59:46;;;;;;;4.80;2.80;;;;;;;22.59;27.89;97089.60;107795;1268;31712;-75
2022/04/12 09:02:17;;;;;;;5.00;3.00;;;;;;;23.43;26.53;97092.32;107656;1268;41059;-75
2022/04/12 09:04:48;;;;;;;4.40;2.70;;;;;;;24.07;25.65;97089.39;107777;1268;39027;-75
2022/04/12 09:07:27;;;;;;;6.10;3.50;;;;;;;23.69;23.52;97082.57;107736;1268;42382;-75
2022/04/12 09:10:08;;;;;;;5.40;2.70;;;;;;;22.01;23.19;97079.89;107792;1268;43085;-75
2022/04/12 09:12:40;;;;;;;5.30;3.00;;;;;;;21.83;26.25;97081.15;107745;1268;74981;-75
2022/04/12 09:15:15;;;;;;;6.40;3.30;;;;;;;22.09;24.06;97082.68;107803;1267;38374;-75
2022/04/12 09:17:49;;;;;;;6.50;4.10;;;;;;;21.80;25.23;97080.36;107775;1268;47243;-75
2022/04/12 09:20:20;;;;;;;8.40;3.90;;;;;;;20.58;24.67;97077.05;107790;1267;51773;-75
2022/04/12 09:22:52;;;;;;;6.70;4.10;;;;;;;19.20;25.11;97086.21;107837;1267;29803;-75
2022/04/12 09:25:23;;;;;;;5.90;3.10;;;;;;;17.94;26.52;97087.48;106021;1268;2479928;-75
2022/04/12 09:27:55;;;;;;;6.20;3.20;;;;;;;17.56;27.34;97092.04;107769;1268;41015;-76
2022/04/12 09:30:27;;;;;;;5.90;3.40;;;;;;;16.66;27.35;97089.39;107802;1268;29390;-75
2022/04/12 09:32:58;;;;;;;6.30;3.30;;;;;;;15.56;28.07;97088.90;107783;1267;56302;-75
2022/04/12 09:35:29;;;;;;;5.90;3.30;;;;;;;14.93;29.12;97087.52;107847;1268;40503;-75
2022/04/12 09:37:59;;;;;;;6.10;3.20;;;;;;;14.75;30.48;97085.12;107856;1267;28101;-75
2022/04/12 09:40:30;;;;;;;7.70;4.30;;;;;;;14.46;29.82;97085.09;107828;1266;41794;-75
2022/04/12 09:43:05;;;;;;;21.80;14.00;;;;;;;13.83;30.64;97084.66;107767;1268;74156;-75
2022/04/12 09:45:36;;;;;;;7.20;5.20;;;;;;;13.85;30.66;97088.42;107812;1267;62472;-75
2022/04/12 09:48:08;;;;;;;7.90;4.80;;;;;;;13.82;31.18;97082.17;107827;1267;45629;-75
2022/04/12 09:50:39;;;;;;;6.10;3.20;;;;;;;13.91;30.81;97082.48;107796;1268;45810;-75
2022/04/12 09:53:11;;;;;;;5.50;3.70;;;;;;;13.55;30.69;97083.42;107778;1267;41079;-75
2022/04/12 09:55:44;;;;;;;4.90;3.00;;;;;;;12.93;29.76;97082.69;107841;1267;42776;-75
2022/04/12 09:58:16;;;;;;;30.70;22.80;;;;;;;12.47;30.86;97085.11;107764;1268;40556;-75
2022/04/12 10:00:48;;;;;;;28.30;21.40;;;;;;;12.84;32.15;97081.23;107756;1268;51113;-75
2022/04/12 10:03:20;;;;;;;33.30;27.20;;;;;;;13.25;31.84;97078.23;107814;1268;56987;-75
2022/04/12 10:05:51;;;;;;;39.40;34.90;;;;;;;13.55;32.31;97074.10;107873;1267;48157;-75
2022/04/12 10:08:26;;;;;;;26.70;23.90;;;;;;;13.49;31.19;97076.08;107845;1268;45616;-75
2022/04/12 10:10:57;;;;;;;6.70;4.40;;;;;;;13.30;31.56;97079.30;107820;1267;37449;-75
2022/04/12 10:13:31;;;;;;;12.60;8.20;;;;;;;13.27;32.35;97072.83;107880;1267;41407;-75
2022/04/12 10:16:02;;;;;;;6.10;3.80;;;;;;;13.51;32.86;97066.84;107897;1267;32093;-75
2022/04/12 10:18:34;;;;;;;8.40;4.40;;;;;;;13.82;32.77;97059.52;107793;1267;40619;-75
2022/04/12 10:21:05;;;;;;;9.20;4.10;;;;;;;14.13;33.23;97065.05;107799;1267;34599;-75
2022/04/12 10:23:38;;;;;;;100.60;66.50;;;;;;;14.39;32.65;97068.50;107822;1267;40883;-75
2022/04/12 10:26:10;;;;;;;103.60;75.80;;;;;;;14.18;32.17;97066.38;107785;1267;39812;-75
2022/04/12 10:28:42;;;;;;;30.90;24.40;;;;;;;13.90;31.13;97066.02;107626;1268;42310;-75
2022/04/12 10:31:25;;;;;;;14.40;8.00;;;;;;;13.59;31.37;97066.20;107660;1270;44113;-75
2022/04/12 10:34:11;;;;;;;6.90;4.20;;;;;;;13.63;31.34;97066.15;107890;1267;35466;-76
2022/04/12 10:37:05;;;;;;;7.30;3.60;;;;;;;13.49;31.42;97056.21;107857;1268;29493;-76
2022/04/12 10:39:38;;;;;;;12.70;11.20;;;;;;;13.63;32.20;97054.88;107702;1268;46587;-75
2022/04/12 10:42:14;;;;;;;9.20;7.20;;;;;;;13.77;32.23;97057.14;107777;1268;41601;-75
2022/04/12 10:44:46;;;;;;;6.70;4.10;;;;;;;13.80;32.31;97056.27;107716;1267;52173;-75
2022/04/12 10:47:27;;;;;;;22.90;14.80;;;;;;;13.82;33.14;97054.88;107799;1268;31839;-75
2022/04/12 10:49:59;;;;;;;;;;;;;;;13.97;32.44;97056.27;107761;1268;36269;-75
2022/04/12 10:52:38;;;;;;;10.90;6.40;;;;;;;13.86;32.29;97053.13;107897;1267;44609;-75
2022/04/12 10:55:12;;;;;;;13.90;8.30;;;;;;;14.07;33.32;97052.52;107844;1267;39812;-76
2022/04/12 10:57:43;;;;;;;8.90;4.30;;;;;;;14.17;32.52;97053.08;107879;1268;35238;-75
2022/04/12 11:00:16;;;;;;;14.80;9.10;;;;;;;14.16;32.02;97058.23;107787;1267;40315;-76
2022/04/12 11:02:53;;;;;;;36.00;26.50;;;;;;;14.08;32.43;97056.76;107813;1267;47538;-75
2022/04/12 11:05:55;;;;;;;7.20;4.00;;;;;;;14.28;32.32;97057.05;107953;1267;34940;-76
2022/04/12 11:09:08;;;;;;;6.10;3.50;;;;;;;14.01;31.53;97054.55;107857;1268;32423;-76
2022/04/12 11:11:41;;;;;;;7.90;4.90;;;;;;;13.82;32.20;97050.09;107457;1273;38877;-76
2022/04/12 11:14:28;;;;;;;133.50;106.30;;;;;;;13.51;32.02;97047.84;107465;1273;46429;-76
2022/04/12 11:17:02;;;;;;;19.90;14.60;;;;;;;13.00;32.69;97056.69;107609;1270;52007;-76
2022/04/12 11:19:45;;;;;;;36.70;29.40;;;;;;;12.98;33.51;97057.63;107706;1270;41771;-76
2022/04/12 11:22:18;;;;;;;5.50;3.20;;;;;;;12.98;32.07;97054.76;107608;1270;39360;-76
2022/04/12 11:25:16;;;;;;;5.50;2.90;;;;;;;12.71;31.73;97053.30;107676;1270;43760;-76
2022/04/12 11:27:55;;;;;;;5.20;3.70;;;;;;;12.41;32.22;97048.11;107655;1270;40208;-76
2022/04/12 11:30:29;;;;;;;5.60;3.50;;;;;;;12.50;32.66;97050.26;107728;1269;50942;-76
2022/04/12 11:33:01;;;;;;;6.20;3.30;;;;;;;12.88;32.98;97043.89;107705;1269;35242;-76
2022/04/12 11:35:33;;;;;;;6.00;3.60;;;;;;;13.11;32.85;97042.86;107663;1270;49021;-76
2022/04/12 11:38:07;;;;;;;6.10;3.90;;;;;;;13.06;32.55;97043.74;107708;1268;33724;-76
2022/04/12 11:40:45;;;;;;;5.90;3.40;;;;;;;12.99;32.20;97042.77;107608;1269;53346;-76
2022/04/12 11:43:26;;;;;;;16.00;9.60;;;;;;;13.20;33.01;97038.13;107670;1270;43071;-76
2022/04/12 11:45:59;;;;;;;7.80;3.70;;;;;;;13.51;33.24;97038.08;107675;1270;45247;-76
2022/04/12 11:48:32;;;;;;;5.50;3.90;;;;;;;13.76;32.96;97039.08;107662;1270;36376;-76
2022/04/12 11:51:06;;;;;;;6.90;3.50;;;;;;;13.90;32.53;97038.46;107715;1270;38233;-76
2022/04/12 11:53:49;;;;;;;5.70;3.50;;;;;;;13.62;31.48;97032.20;107623;1270;39501;-76